Terminal Aerodrome Forecast
Issued by NWS Louisville, KY

Home | Current Version | Previous Version | Text Only | Print | Product List | Glossary On
Versions: 1 2 3 4 5 6 7 8 9 10 11 12 13 14 15
000
FTUS43 KLMK 072334
TAFSDF
TAF
KSDF 072334Z 0800/0906 31004KT P6SM OVC100
     FM080900 30005KT P6SM OVC050
     FM081400 28010G16KT P6SM FEW250
     FM090000 29007KT P6SM SCT035=

USA.gov is the U.S. government's official web portal to all federal, state and local government web resources and services.